Time;durP1;ratioP1;P1;durP2;ratioP2;P2;SDS_P1;SDS_P2;PMS_P1;PMS_P2;Temp;Humidity;BMP_temperature;BMP_pressure;BME280_temperature;BME280_humidity;BME280_pressure;Samples;Min_cycle;Max_cycle;Signal;HPM_P1;HPM_P2
2024/02/03 00:01:29;;;;;;;35.08;22.02;;;;;;;5.69;88.62;101029.34;5088936;28;20416;-76
2024/02/03 00:03:54;;;;;;;32.63;20.65;;;;;;;6.02;81.27;101030.22;5066164;28;20030;-76
2024/02/03 00:06:20;;;;;;;41.97;24.10;;;;;;;5.33;83.44;101026.13;5088814;28;20482;-77
2024/02/03 00:08:45;;;;;;;34.47;21.35;;;;;;;4.97;85.28;101005.19;5089336;28;20032;-76
2024/02/03 00:11:11;;;;;;;31.63;18.77;;;;;;;5.00;85.00;101026.00;5075536;28;20040;-77
2024/02/03 00:13:36;;;;;;;33.03;18.77;;;;;;;4.83;86.58;101014.53;5075053;28;20024;-77
2024/02/03 00:16:02;;;;;;;27.95;16.85;;;;;;;4.65;88.58;101025.16;5088325;28;20117;-77
2024/02/03 00:18:27;;;;;;;27.05;16.60;;;;;;;4.38;90.10;100990.00;5088522;28;20016;-76
2024/02/03 00:20:53;;;;;;;27.70;17.38;;;;;;;4.70;89.77;101019.41;5088310;28;20063;-76
2024/02/03 00:23:19;;;;;;;27.50;16.55;;;;;;;4.59;91.18;101012.56;5087200;28;20054;-76
2024/02/03 00:25:44;;;;;;;25.65;16.92;;;;;;;4.49;91.53;101006.56;5088430;28;20039;-76
2024/02/03 00:28:09;;;;;;;26.60;16.65;;;;;;;4.49;91.33;101006.56;5088205;28;20054;-77
2024/02/03 00:30:35;;;;;;;27.17;16.70;;;;;;;4.32;91.74;100980.06;5063220;28;20102;-78
2024/02/03 00:33:00;;;;;;;26.65;17.90;;;;;;;4.66;91.26;101010.13;5067982;28;20025;-78
2024/02/03 00:35:26;;;;;;;29.90;18.17;;;;;;;4.68;89.11;101011.66;5087791;28;20036;-77
2024/02/03 00:37:51;;;;;;;31.17;18.80;;;;;;;4.52;89.91;100995.72;5088290;28;20028;-78
2024/02/03 00:40:17;;;;;;;28.88;17.77;;;;;;;4.43;90.79;101005.38;5070089;28;20040;-77
2024/02/03 00:42:43;;;;;;;27.17;16.75;;;;;;;4.43;91.52;101016.78;5087718;28;20039;-77
2024/02/03 00:45:09;;;;;;;29.25;17.27;;;;;;;4.47;91.08;101012.00;5074515;28;20036;-77
2024/02/03 00:47:34;;;;;;;27.98;17.17;;;;;;;4.35;91.33;100995.63;5067920;28;20473;-77
2024/02/03 00:50:00;;;;;;;31.00;18.80;;;;;;;4.52;90.25;101008.91;5067464;28;20028;-78
2024/02/03 00:52:26;;;;;;;29.50;17.60;;;;;;;4.46;90.60;101012.19;5068037;28;20021;-77
2024/02/03 00:54:52;;;;;;;26.35;16.27;;;;;;;4.40;90.49;101003.88;5079848;28;20028;-76
2024/02/03 00:57:18;;;;;;;28.20;17.10;;;;;;;4.33;90.76;100978.25;5069415;28;20096;-77
2024/02/03 00:59:43;;;;;;;25.65;17.48;;;;;;;4.40;90.66;101003.06;5087647;28;20126;-75
2024/02/03 01:02:09;;;;;;;29.80;19.48;;;;;;;4.32;91.51;100995.91;5071242;28;20138;-77
2024/02/03 01:04:34;;;;;;;29.52;19.10;;;;;;;4.34;91.74;100982.56;5058169;28;20040;-77
2024/02/03 01:07:01;;;;;;;29.50;17.90;;;;;;;4.15;91.80;100989.69;5088338;28;20032;-77
2024/02/03 01:09:27;;;;;;;27.65;16.58;;;;;;;3.99;93.91;101006.22;5087538;28;20102;-77
2024/02/03 01:11:54;;;;;;;27.50;17.35;;;;;;;3.86;94.93;100995.22;5074725;28;20032;-77
2024/02/03 01:14:20;;;;;;;27.80;18.02;;;;;;;4.29;91.65;100996.22;5069558;28;20064;-76
2024/02/03 01:16:48;;;;;;;26.85;17.42;;;;;;;4.20;91.67;100976.84;5048859;28;20110;-77
2024/02/03 01:19:14;;;;;;;29.13;17.95;;;;;;;4.14;92.36;100995.13;5067077;28;20494;-77
2024/02/03 01:21:39;;;;;;;27.10;16.50;;;;;;;4.05;94.08;100996.88;5049285;28;20081;-76
2024/02/03 01:24:05;;;;;;;28.20;17.42;;;;;;;3.88;93.84;100977.44;5069950;28;20111;-77
2024/02/03 01:26:30;;;;;;;27.67;16.92;;;;;;;4.29;92.13;100996.22;5087363;28;20031;-77
2024/02/03 01:28:55;;;;;;;29.13;16.55;;;;;;;4.03;92.94;100975.91;5087371;28;20024;-77
2024/02/03 01:31:21;;;;;;;28.02;16.75;;;;;;;4.11;93.03;100985.72;5087802;28;20055;-78
2024/02/03 01:33:47;;;;;;;25.73;17.20;;;;;;;3.93;92.19;100959.34;5068503;28;20035;-78
2024/02/03 01:36:12;;;;;;;30.85;18.02;;;;;;;4.00;93.63;100968.31;5067580;28;20417;-78
2024/02/03 01:38:38;;;;;;;30.75;19.33;;;;;;;4.00;92.93;100970.09;5086907;28;20028;-77
2024/02/03 01:41:03;;;;;;;46.88;22.90;;;;;;;3.95;93.39;100978.47;5084347;28;20039;-77
2024/02/03 01:43:29;;;;;;;40.28;23.35;;;;;;;3.90;95.18;100991.28;5066985;28;20024;-77
2024/02/03 01:45:54;;;;;;;35.35;20.88;;;;;;;3.53;98.22;100958.00;5082765;28;20036;-76
2024/02/03 01:48:20;;;;;;;33.97;20.77;;;;;;;3.69;97.56;100967.06;5086836;28;20084;-76
2024/02/03 01:50:50;;;;;;;33.60;21.05;;;;;;;3.85;98.12;100985.66;5068779;28;20048;-76
2024/02/03 01:53:19;;;;;;;34.42;20.75;;;;;;;3.77;96.66;100938.09;5086896;28;20024;-77
2024/02/03 01:55:46;;;;;;;36.58;20.92;;;;;;;3.91;97.23;100979.78;5084917;28;20416;-77
2024/02/03 01:58:11;;;;;;;36.58;21.17;;;;;;;3.71;99.18;100970.38;5068674;28;20044;-77
2024/02/03 02:00:37;;;;;;;36.20;21.52;;;;;;;3.79;97.32;100962.53;5086593;28;20032;-76
2024/02/03 02:03:02;;;;;;;66.65;30.15;;;;;;;3.82;98.36;100970.13;5090631;28;20032;-77
2024/02/03 02:05:30;;;;;;;57.78;28.48;;;;;;;3.65;97.96;100945.41;5089802;28;20501;-76
2024/02/03 02:07:56;;;;;;;41.53;23.13;;;;;;;3.84;96.64;100960.25;5090903;28;20082;-77
2024/02/03 02:10:21;;;;;;;34.88;20.17;;;;;;;3.72;95.81;100945.63;5091104;28;20489;-77
2024/02/03 02:12:47;;;;;;;42.80;22.52;;;;;;;3.70;96.68;100958.16;5091248;28;20036;-76
2024/02/03 02:15:12;;;;;;;41.53;22.38;;;;;;;3.80;97.00;100966.81;5071656;28;20032;-76
2024/02/03 02:17:41;;;;;;;39.92;22.27;;;;;;;3.56;96.87;100941.88;5055002;28;20051;-77
2024/02/03 02:20:08;;;;;;;33.67;19.48;;;;;;;3.59;97.48;100967.13;5070911;28;20031;-76
2024/02/03 02:22:34;;;;;;;31.08;19.05;;;;;;;3.56;97.77;100968.25;5070980;28;20036;-76
2024/02/03 02:25:00;;;;;;;28.40;17.52;;;;;;;3.40;99.16;100968.94;5050363;28;20369;-78
2024/02/03 02:27:25;;;;;;;28.42;17.10;;;;;;;3.27;97.89;100936.84;5032423;28;20693;-77
2024/02/03 02:29:50;;;;;;;26.30;16.92;;;;;;;3.25;98.39;100964.31;5050551;28;20021;-77
2024/02/03 02:32:16;;;;;;;30.63;17.90;;;;;;;3.14;97.67;100913.47;5032639;28;20048;-77
2024/02/03 02:34:42;;;;;;;31.95;19.45;;;;;;;3.49;97.02;100966.38;5051949;28;20116;-77
2024/02/03 02:37:07;;;;;;;30.02;18.00;;;;;;;3.41;96.52;100953.94;5069714;28;20032;-77
2024/02/03 02:39:33;;;;;;;29.40;17.15;;;;;;;3.15;96.52;100944.13;5070371;28;20028;-76
2024/02/03 02:41:58;;;;;;;34.22;18.27;;;;;;;3.22;96.38;100955.72;5047879;28;20036;-76
2024/02/03 02:44:23;;;;;;;34.20;18.33;;;;;;;3.12;96.58;100944.41;5031995;28;20025;-76
2024/02/03 02:46:49;;;;;;;31.80;18.42;;;;;;;3.12;96.26;100954.13;5049031;28;20033;-77
2024/02/03 02:49:14;;;;;;;36.33;18.80;;;;;;;2.98;96.11;100942.28;5070271;28;20108;-77
2024/02/03 02:51:40;;;;;;;36.55;20.45;;;;;;;3.07;94.91;100951.13;5069554;28;20032;-77
2024/02/03 02:54:05;;;;;;;37.45;19.80;;;;;;;2.97;96.07;100974.91;5051969;28;20028;-76
2024/02/03 02:56:31;;;;;;;31.40;17.90;;;;;;;2.91;95.38;100967.59;5054710;28;20048;-76
2024/02/03 02:58:56;;;;;;;34.28;17.52;;;;;;;2.63;96.87;100949.13;5049833;28;20930;-77
2024/02/03 03:01:22;;;;;;;28.70;16.88;;;;;;;2.84;95.71;100963.84;5032031;28;20481;-77
2024/02/03 03:03:50;;;;;;;33.00;18.30;;;;;;;2.54;96.26;100952.63;5067012;28;20032;-77
2024/02/03 03:06:15;;;;;;;36.40;19.73;;;;;;;2.65;95.95;100972.69;5068986;28;20028;-77
2024/02/03 03:08:41;;;;;;;27.98;16.48;;;;;;;2.17;100.00;100962.16;5069860;28;20451;-77
2024/02/03 03:11:06;;;;;;;27.42;15.98;;;;;;;2.32;100.00;100973.06;5070054;28;20039;-77
2024/02/03 03:13:31;;;;;;;30.85;17.42;;;;;;;2.14;100.00;100953.72;5055427;28;20033;-77
2024/02/03 03:15:57;;;;;;;28.67;16.90;;;;;;;2.37;99.83;100976.09;5055234;28;20050;-78
2024/02/03 03:18:22;;;;;;;27.45;17.00;;;;;;;2.27;100.00;100949.00;5069658;28;20355;-77
2024/02/03 03:20:48;;;;;;;31.52;17.27;;;;;;;2.26;100.00;100978.91;5051392;28;20036;-77
2024/02/03 03:23:13;;;;;;;36.42;20.02;;;;;;;2.33;99.55;100964.22;5069137;28;20031;-77
2024/02/03 03:25:38;;;;;;;50.13;24.83;;;;;;;2.23;100.00;100976.56;5071832;28;20046;-77
2024/02/03 03:28:04;;;;;;;74.55;34.25;;;;;;;2.16;99.79;100959.66;5069274;28;20190;-77
2024/02/03 03:30:30;;;;;;;86.85;36.33;;;;;;;2.20;99.25;100974.19;5051090;28;20482;-76
2024/02/03 03:32:56;;;;;;;78.43;32.70;;;;;;;2.23;97.03;100971.28;5069382;28;20093;-76
2024/02/03 03:35:21;;;;;;;54.67;28.08;;;;;;;2.03;97.09;100940.75;5051171;28;20024;-77
2024/02/03 03:37:47;;;;;;;71.18;31.90;;;;;;;1.88;100.00;100964.84;5071543;28;20033;-77
2024/02/03 03:40:12;;;;;;;106.03;43.20;;;;;;;1.92;99.34;100955.72;5051116;28;20044;-77
2024/02/03 03:42:37;;;;;;;82.25;35.55;;;;;;;1.90;98.91;100960.28;5068936;28;20051;-77
2024/02/03 03:45:04;;;;;;;57.38;29.88;;;;;;;1.49;99.79;100964.88;5069018;28;20032;-77
2024/02/03 03:47:30;;;;;;;42.53;22.40;;;;;;;1.71;98.15;100965.53;5066684;28;20034;-77
2024/02/03 03:49:55;;;;;;;91.65;60.40;;;;;;;1.65;97.96;100952.94;5088919;28;20473;-78
2024/02/03 03:52:21;;;;;;;43.03;24.77;;;;;;;1.67;99.09;100953.63;5070453;28;20498;-78
2024/02/03 03:54:46;;;;;;;126.32;72.70;;;;;;;1.19;100.00;100923.75;5068759;28;20035;-77
2024/02/03 03:57:12;;;;;;;64.50;35.67;;;;;;;1.20;100.00;100936.72;5078014;28;20515;-78
2024/02/03 03:59:37;;;;;;;65.00;37.72;;;;;;;1.24;100.00;100933.84;5060471;28;20044;-77
2024/02/03 04:02:02;;;;;;;97.70;50.70;;;;;;;1.14;100.00;100939.06;5058974;28;20111;-77
2024/02/03 04:04:28;;;;;;;51.35;26.45;;;;;;;1.10;100.00;100933.25;5079502;28;20032;-77
2024/02/03 04:06:53;;;;;;;68.93;33.88;;;;;;;1.17;100.00;100937.00;5084369;28;20020;-76
2024/02/03 04:09:20;;;;;;;46.25;25.55;;;;;;;1.19;100.00;100929.81;5077939;28;20032;-76
2024/02/03 04:11:45;;;;;;;36.35;20.83;;;;;;;1.24;100.00;100897.88;5078035;28;20051;-77
2024/02/03 04:14:11;;;;;;;32.38;18.42;;;;;;;1.38;100.00;100930.81;5079202;28;20026;-77
2024/02/03 04:16:36;;;;;;;32.42;19.10;;;;;;;1.25;100.00;100935.47;5084194;28;20056;-76
2024/02/03 04:19:02;;;;;;;50.75;25.17;;;;;;;1.40;100.00;100934.13;5070572;28;20030;-77
2024/02/03 04:21:28;;;;;;;33.60;18.27;;;;;;;1.41;100.00;100922.66;5089139;28;20400;-77
2024/02/03 04:23:54;;;;;;;31.52;18.20;;;;;;;1.52;100.00;100933.03;5068646;28;20036;-77
2024/02/03 04:26:20;;;;;;;34.17;18.05;;;;;;;1.57;100.00;100937.84;5079401;28;20118;-77
2024/02/03 04:28:45;;;;;;;39.60;23.48;;;;;;;1.43;100.00;100927.75;5076925;28;20051;-76
2024/02/03 04:31:12;;;;;;;38.03;20.75;;;;;;;1.16;100.00;100921.38;5068137;28;20103;-76
2024/02/03 04:33:37;;;;;;;28.42;17.10;;;;;;;0.85;100.00;100910.13;5058731;28;20036;-77
2024/02/03 04:36:04;;;;;;;35.15;19.90;;;;;;;0.96;100.00;100904.75;5079258;28;20033;-77
2024/02/03 04:38:30;;;;;;;30.75;18.55;;;;;;;1.04;100.00;100922.47;5078660;28;20521;-77
2024/02/03 04:40:56;;;;;;;42.20;31.35;;;;;;;0.91;100.00;100897.28;5059622;28;20028;-76
2024/02/03 04:43:22;;;;;;;46.38;34.25;;;;;;;0.78;100.00;100929.06;5077888;28;20150;-77
2024/02/03 04:45:47;;;;;;;36.13;21.55;;;;;;;0.55;100.00;100898.72;5078096;28;20032;-75
2024/02/03 04:48:17;;;;;;;31.17;17.65;;;;;;;0.06;100.00;100918.66;5081689;28;20028;-78
2024/02/03 04:50:44;;;;;;;29.67;17.90;;;;;;;0.23;97.95;100915.44;5077404;28;20519;-77
2024/02/03 04:53:09;;;;;;;25.95;16.25;;;;;;;-0.49;100.00;100919.69;5075387;28;20024;-77
2024/02/03 04:55:35;;;;;;;26.33;15.00;;;;;;;-0.82;100.00;100920.63;5080345;28;20132;-76
2024/02/03 04:58:00;;;;;;;24.50;13.88;;;;;;;-0.83;100.00;100922.41;5079583;28;20028;-77
2024/02/03 05:00:27;;;;;;;31.15;19.23;;;;;;;-0.38;100.00;100938.94;5065490;28;20401;-77
2024/02/03 05:02:53;;;;;;;29.00;17.35;;;;;;;-0.31;100.00;100914.69;5057607;28;20036;-76
2024/02/03 05:05:18;;;;;;;33.25;16.70;;;;;;;-0.13;100.00;100917.59;5078793;28;20036;-76
2024/02/03 05:07:46;;;;;;;30.58;16.35;;;;;;;0.07;100.00;100923.78;5077617;28;20032;-76
2024/02/03 05:10:11;;;;;;;40.53;22.05;;;;;;;0.21;100.00;100925.25;5059856;28;20021;-76
2024/02/03 05:12:37;;;;;;;43.88;24.25;;;;;;;0.15;100.00;100931.00;5078791;28;20040;-76
2024/02/03 05:15:03;;;;;;;41.97;23.38;;;;;;;0.02;100.00;100935.59;5079166;28;20021;-75
2024/02/03 05:17:29;;;;;;;36.33;20.88;;;;;;;-0.34;100.00;100935.94;5079913;28;20051;-77
2024/02/03 05:19:54;;;;;;;45.10;25.52;;;;;;;-0.41;100.00;100919.03;5052151;28;20036;-76
2024/02/03 05:22:20;;;;;;;46.50;25.98;;;;;;;-0.08;100.00;100931.16;5067272;28;20039;-77
2024/02/03 05:24:46;;;;;;;47.38;25.50;;;;;;;-0.26;100.00;100904.69;5067899;28;20081;-76
2024/02/03 05:27:11;;;;;;;48.22;26.33;;;;;;;0.08;100.00;100924.59;5051426;28;20020;-76
2024/02/03 05:29:40;;;;;;;48.47;29.30;;;;;;;0.34;100.00;100928.47;5067310;28;20035;-75
2024/02/03 05:32:06;;;;;;;55.03;32.95;;;;;;;-0.01;100.00;100894.75;5067625;28;20035;-77
2024/02/03 05:34:31;;;;;;;56.70;31.55;;;;;;;-0.30;100.00;100928.66;5067185;28;20040;-76
2024/02/03 05:36:57;;;;;;;65.50;33.90;;;;;;;-0.43;100.00;100927.03;5066892;28;20162;-76
2024/02/03 05:39:22;;;;;;;69.18;36.33;;;;;;;-0.55;100.00;100908.84;5068772;28;20051;-76
2024/02/03 05:41:48;;;;;;;72.75;38.95;;;;;;;-0.16;100.00;100917.84;5049173;28;20029;-76
2024/02/03 05:44:13;;;;;;;74.80;41.30;;;;;;;0.06;100.00;100906.41;5067297;28;20103;-77
2024/02/03 05:46:38;;;;;;;73.93;41.22;;;;;;;0.17;100.00;100887.13;5049906;28;20028;-76
2024/02/03 05:49:04;;;;;;;64.20;37.85;;;;;;;0.21;100.00;100924.41;5069562;28;20478;-77
2024/02/03 05:51:29;;;;;;;76.55;43.50;;;;;;;0.21;100.00;100904.25;5056631;28;20473;-77
2024/02/03 05:53:57;;;;;;;68.38;38.50;;;;;;;0.21;100.00;100893.75;5068966;28;20115;-76
2024/02/03 05:56:22;;;;;;;61.75;36.72;;;;;;;-0.03;100.00;100892.25;5067766;28;20037;-75
2024/02/03 05:58:48;;;;;;;62.28;36.15;;;;;;;0.24;100.00;100919.72;5081276;28;20028;-76
2024/02/03 06:01:19;;;;;;;73.50;41.58;;;;;;;0.12;100.00;100878.78;5087647;28;20039;-77
2024/02/03 06:03:44;;;;;;;66.57;40.42;;;;;;;0.30;100.00;100903.44;5087359;28;20138;-77
2024/02/03 06:06:12;;;;;;;61.60;35.38;;;;;;;0.24;100.00;100909.22;5068804;28;20040;-76
2024/02/03 06:08:39;;;;;;;56.38;32.63;;;;;;;0.44;100.00;100925.88;5069360;28;20036;-76
2024/02/03 06:11:05;;;;;;;54.53;31.08;;;;;;;0.61;100.00;100916.56;5066723;28;20028;-76
2024/02/03 06:13:30;;;;;;;56.85;31.73;;;;;;;0.57;100.00;100904.66;5067239;28;20024;-76
2024/02/03 06:15:55;;;;;;;55.17;32.03;;;;;;;0.48;100.00;100922.03;5048451;28;20160;-76
2024/02/03 06:18:21;;;;;;;53.97;33.63;;;;;;;0.21;100.00;100930.50;5079870;28;20050;-75
2024/02/03 06:20:47;;;;;;;53.25;31.13;;;;;;;-0.22;100.00;100929.69;5086840;28;20028;-76
2024/02/03 06:23:13;;;;;;;59.72;35.47;;;;;;;-0.01;100.00;100942.78;5069366;28;20454;-76
2024/02/03 06:25:38;;;;;;;56.80;33.35;;;;;;;-0.54;100.00;100908.75;5068608;28;20485;-78
2024/02/03 06:28:04;;;;;;;49.70;27.98;;;;;;;-0.48;100.00;100934.44;5085484;28;20028;-77
2024/02/03 06:30:29;;;;;;;47.25;27.15;;;;;;;-0.02;100.00;100935.03;5086612;28;20024;-77
2024/02/03 06:32:54;;;;;;;50.00;28.63;;;;;;;0.14;100.00;100934.56;5068277;28;20043;-75
2024/02/03 06:35:20;;;;;;;59.38;35.58;;;;;;;0.31;100.00;100946.28;5078804;28;20032;-76
2024/02/03 06:37:45;;;;;;;53.08;32.15;;;;;;;0.19;100.00;100937.66;5066741;28;20024;-77
2024/02/03 06:40:11;;;;;;;57.17;32.40;;;;;;;0.50;100.00;100938.47;5078922;28;20036;-77
2024/02/03 06:42:37;;;;;;;53.90;32.10;;;;;;;0.80;100.00;100944.69;5066273;28;20927;-77
2024/02/03 06:45:02;;;;;;;61.38;36.22;;;;;;;1.09;100.00;100931.63;5070439;28;20032;-76
2024/02/03 06:47:27;;;;;;;58.45;35.65;;;;;;;1.42;100.00;100942.72;5087664;28;20063;-76
2024/02/03 06:49:53;;;;;;;60.50;38.35;;;;;;;1.31;100.00;100948.06;5071883;28;20432;-76
2024/02/03 06:52:18;;;;;;;63.42;37.35;;;;;;;1.11;100.00;100919.16;5090357;28;20027;-78
2024/02/03 06:54:44;;;;;;;64.28;36.95;;;;;;;1.53;100.00;100932.06;5089790;28;20111;-76
2024/02/03 06:57:09;;;;;;;64.85;37.38;;;;;;;1.84;100.00;100944.22;5070311;28;20330;-76
2024/02/03 06:59:34;;;;;;;58.50;34.17;;;;;;;1.65;100.00;100903.00;5054048;28;20127;-78
2024/02/03 07:02:00;;;;;;;50.03;31.27;;;;;;;1.37;100.00;100866.09;5069513;28;20024;-77
2024/02/03 07:04:25;;;;;;;54.88;31.00;;;;;;;1.81;100.00;100911.97;5051211;28;20469;-77
2024/02/03 07:06:50;;;;;;;51.60;29.92;;;;;;;2.33;100.00;100927.34;5068839;28;20033;-76
2024/02/03 07:09:16;;;;;;;50.63;30.95;;;;;;;2.43;100.00;100943.09;5077614;28;20154;-77
2024/02/03 07:11:41;;;;;;;43.58;26.65;;;;;;;2.27;100.00;100927.06;5089222;28;20021;-78
2024/02/03 07:14:07;;;;;;;46.03;26.90;;;;;;;2.60;99.08;100941.53;5089104;28;20066;-77
2024/02/03 07:16:32;;;;;;;47.75;31.50;;;;;;;2.40;100.00;100943.41;5074887;28;20851;-77
2024/02/03 07:18:58;;;;;;;46.83;28.92;;;;;;;2.51;100.00;100929.22;5074069;28;20031;-77
2024/02/03 07:21:23;;;;;;;42.30;23.95;;;;;;;2.57;99.43;100939.16;5088411;28;20066;-77
2024/02/03 07:23:50;;;;;;;36.42;22.50;;;;;;;2.81;99.60;100936.00;5088798;28;20390;-77
2024/02/03 07:26:15;;;;;;;37.45;23.52;;;;;;;3.07;98.63;100930.06;5078291;28;20100;-77
2024/02/03 07:28:41;;;;;;;45.08;25.70;;;;;;;3.32;95.67;100917.94;5070070;28;20114;-78
2024/02/03 07:31:06;;;;;;;35.28;20.25;;;;;;;3.41;93.06;100933.69;5088914;28;20093;-77
2024/02/03 07:33:32;;;;;;;28.70;17.02;;;;;;;3.49;91.65;100903.91;5089632;28;20024;-77
2024/02/03 07:35:57;;;;;;;29.60;17.52;;;;;;;3.65;89.43;100932.22;5089834;28;20060;-77
2024/02/03 07:38:25;;;;;;;31.55;19.23;;;;;;;4.05;87.95;100927.44;5088482;28;20412;-77
2024/02/03 07:40:50;;;;;;;29.77;16.42;;;;;;;4.27;82.39;100929.53;5072495;28;20509;-78
2024/02/03 07:43:16;;;;;;;49.08;27.45;;;;;;;4.27;83.97;100924.25;5069269;28;20052;-77
2024/02/03 07:45:41;;;;;;;33.10;18.52;;;;;;;4.49;82.93;100935.25;5069667;28;20024;-77
2024/02/03 07:48:07;;;;;;;23.83;13.45;;;;;;;4.66;78.72;100944.94;5069286;28;20040;-77
2024/02/03 07:50:32;;;;;;;19.98;12.82;;;;;;;4.89;77.05;100944.34;5072036;28;20024;-77
2024/02/03 07:52:58;;;;;;;21.13;12.05;;;;;;;4.91;76.56;100937.09;5069224;28;20039;-76
2024/02/03 07:55:23;;;;;;;20.85;11.52;;;;;;;4.99;75.16;100932.66;5068576;28;20035;-76
2024/02/03 07:57:48;;;;;;;22.17;12.18;;;;;;;5.03;74.09;100925.22;5068995;28;20558;-76
2024/02/03 08:00:14;;;;;;;20.25;11.50;;;;;;;5.16;73.46;100936.16;5080742;28;20036;-78
2024/02/03 08:02:40;;;;;;;18.52;11.65;;;;;;;5.15;74.70;100917.81;5089539;28;20115;-77
2024/02/03 08:05:06;;;;;;;19.98;11.63;;;;;;;5.55;72.64;100945.31;5070872;28;20416;-77
2024/02/03 08:07:31;;;;;;;21.38;12.38;;;;;;;5.57;71.99;100941.50;5054236;28;20086;-78
2024/02/03 08:09:56;;;;;;;19.73;12.10;;;;;;;5.54;73.59;100928.63;5077090;28;20412;-77
2024/02/03 08:12:22;;;;;;;17.95;12.48;;;;;;;5.78;71.27;100903.13;5088856;28;20028;-78
2024/02/03 08:14:47;;;;;;;21.73;12.80;;;;;;;5.96;69.74;100901.16;5088901;28;20083;-77
2024/02/03 08:17:13;;;;;;;20.20;12.18;;;;;;;6.35;66.71;100918.94;5070259;28;20064;-76
2024/02/03 08:19:39;;;;;;;21.90;13.40;;;;;;;6.35;67.85;100921.59;5084667;28;20038;-76
2024/02/03 08:22:05;;;;;;;19.75;11.95;;;;;;;6.25;69.54;100934.19;5068232;28;20047;-76
2024/02/03 08:24:30;;;;;;;20.10;13.45;;;;;;;6.24;68.54;100935.19;5068373;28;20016;-77
2024/02/03 08:26:55;;;;;;;19.92;12.95;;;;;;;6.55;67.83;100929.16;5068033;28;20047;-77
2024/02/03 08:29:21;;;;;;;19.67;11.93;;;;;;;6.92;64.32;100943.56;5053677;28;20035;-77
2024/02/03 08:31:46;;;;;;;20.80;12.65;;;;;;;6.80;64.38;100925.41;5070569;28;20043;-77
2024/02/03 08:34:12;;;;;;;21.08;11.75;;;;;;;6.96;63.23;100923.66;5070417;28;20023;-77
2024/02/03 08:36:37;;;;;;;19.15;11.65;;;;;;;7.00;63.39;100936.41;5070500;28;20681;-76
2024/02/03 08:39:03;;;;;;;18.92;11.85;;;;;;;6.90;63.72;100897.84;5088111;28;20107;-76
2024/02/03 08:41:29;;;;;;;16.65;11.65;;;;;;;7.22;61.43;100929.47;5084008;28;20083;-76
2024/02/03 08:43:54;;;;;;;17.30;11.02;;;;;;;7.33;60.41;100908.84;5088192;28;20536;-76
2024/02/03 08:46:20;;;;;;;18.63;11.48;;;;;;;7.36;61.66;100925.25;5067469;28;20070;-77
2024/02/03 08:48:46;;;;;;;21.20;12.30;;;;;;;7.28;61.73;100906.72;5049614;28;20023;-77
2024/02/03 08:51:16;;;;;;;19.80;11.60;;;;;;;7.47;60.48;100915.22;5083160;28;20039;-76
2024/02/03 08:53:41;;;;;;;18.90;11.82;;;;;;;7.29;61.64;100907.56;5070175;28;20028;-77
2024/02/03 08:56:07;;;;;;;20.05;11.35;;;;;;;7.57;59.92;100911.31;5088411;28;20077;-77
2024/02/03 08:58:32;;;;;;;21.92;11.25;;;;;;;7.87;59.72;100916.72;5069166;28;20060;-77
2024/02/03 09:00:58;;;;;;;20.73;12.23;;;;;;;8.17;60.52;100914.09;5080591;28;20061;-76
2024/02/03 09:03:23;;;;;;;18.45;11.70;;;;;;;8.12;58.80;100898.69;5087909;28;20062;-77
2024/02/03 09:05:48;;;;;;;18.08;11.00;;;;;;;8.29;57.90;100917.94;5087779;28;20124;-77
2024/02/03 09:08:14;;;;;;;16.10;10.88;;;;;;;8.63;56.96;100911.28;5071926;28;20047;-76
2024/02/03 09:10:39;;;;;;;16.92;10.70;;;;;;;8.48;57.37;100897.16;5070614;28;20029;-77
2024/02/03 09:13:04;;;;;;;20.63;12.43;;;;;;;8.65;57.51;100893.31;5067518;28;20024;-76
2024/02/03 09:15:30;;;;;;;18.17;11.32;;;;;;;8.75;55.63;100903.66;5049527;28;20421;-77
2024/02/03 09:17:55;;;;;;;18.85;11.73;;;;;;;8.71;56.51;100879.28;5067501;28;20037;-76
2024/02/03 09:20:21;;;;;;;17.70;11.05;;;;;;;8.91;56.38;100892.81;5072048;28;20036;-76
2024/02/03 09:22:46;;;;;;;16.33;10.65;;;;;;;9.11;55.24;100887.66;5069681;28;20035;-76
2024/02/03 09:25:11;;;;;;;13.68;8.77;;;;;;;9.07;52.21;100889.06;5087771;28;20039;-76
2024/02/03 09:27:37;;;;;;;12.68;7.15;;;;;;;9.27;53.73;100897.25;5079048;28;20035;-77
2024/02/03 09:30:04;;;;;;;10.02;4.90;;;;;;;9.38;49.11;100903.94;5069392;28;20119;-77
2024/02/03 09:32:30;;;;;;;9.20;4.55;;;;;;;9.09;49.08;100884.38;5087598;28;20032;-76
2024/02/03 09:34:55;;;;;;;11.98;5.75;;;;;;;9.04;48.68;100879.63;5087627;28;20080;-76
2024/02/03 09:37:21;;;;;;;11.40;6.00;;;;;;;9.52;48.99;100879.06;5087258;28;20084;-76
2024/02/03 09:39:46;;;;;;;7.53;4.35;;;;;;;9.63;47.65;100886.53;5069470;28;20035;-75
2024/02/03 09:42:12;;;;;;;9.75;4.50;;;;;;;9.34;47.88;100866.22;5085587;28;20119;-76
2024/02/03 09:44:38;;;;;;;11.27;5.50;;;;;;;9.60;47.09;100868.28;5087951;28;20028;-77
2024/02/03 09:47:04;;;;;;;8.55;4.35;;;;;;;9.98;48.17;100878.59;5067294;28;20127;-77
2024/02/03 09:49:29;;;;;;;7.47;4.28;;;;;;;9.88;46.59;100846.13;5049174;28;20032;-77
2024/02/03 09:51:55;;;;;;;8.27;3.65;;;;;;;10.19;46.60;100859.03;5070768;28;20735;-76
2024/02/03 09:54:21;;;;;;;7.68;4.88;;;;;;;10.55;46.53;100835.84;5067527;28;20036;-76
2024/02/03 09:56:49;;;;;;;7.75;4.38;;;;;;;10.76;44.36;100853.56;5049788;28;20036;-76
2024/02/03 09:59:14;;;;;;;7.00;4.15;;;;;;;10.48;44.25;100846.47;5049247;28;20032;-76
2024/02/03 10:01:45;;;;;;;7.13;4.05;;;;;;;10.28;45.17;100835.72;5060687;28;20039;-77
2024/02/03 10:04:14;;;;;;;6.57;3.95;;;;;;;10.27;44.81;100826.06;5087795;28;20020;-75
2024/02/03 10:06:47;;;;;;;7.00;4.20;;;;;;;10.59;44.54;100837.91;5069449;28;20025;-77
2024/02/03 10:09:25;;;;;;;8.50;3.78;;;;;;;10.58;43.72;100819.44;5088627;28;20024;-77
2024/02/03 10:11:51;;;;;;;9.65;4.80;;;;;;;10.21;44.19;100809.00;5086212;28;20036;-76
2024/02/03 10:14:19;;;;;;;8.82;4.13;;;;;;;10.06;44.67;100787.00;5070042;28;20020;-77
2024/02/03 10:16:46;;;;;;;7.93;4.35;;;;;;;10.49;44.35;100815.31;5082585;28;20040;-76
2024/02/03 10:19:12;;;;;;;8.23;4.55;;;;;;;10.65;44.49;100793.63;5094250;28;20028;-77
2024/02/03 10:21:37;;;;;;;11.15;6.78;;;;;;;11.00;43.23;100806.81;5090861;28;20035;-76
2024/02/03 10:24:03;;;;;;;14.75;8.25;;;;;;;11.27;42.98;100791.63;5081374;28;20032;-77
2024/02/03 10:26:29;;;;;;;8.63;4.95;;;;;;;11.44;42.65;100784.03;5095750;28;20063;-77
2024/02/03 10:28:54;;;;;;;10.32;5.10;;;;;;;11.45;42.25;100793.69;5070837;28;20067;-78
2024/02/03 10:31:20;;;;;;;7.53;4.45;;;;;;;11.46;42.42;100773.94;5085656;28;20054;-77
2024/02/03 10:33:45;;;;;;;15.00;6.60;;;;;;;11.52;42.18;100783.00;5084378;28;20052;-76
2024/02/03 10:36:11;;;;;;;9.10;4.60;;;;;;;11.62;42.45;100778.84;5102253;28;20591;-76
2024/02/03 10:38:38;;;;;;;8.10;4.18;;;;;;;11.20;41.85;100778.28;5102001;28;20020;-77
2024/02/03 10:41:05;;;;;;;10.48;4.80;;;;;;;11.68;41.91;100768.38;5100143;28;20425;-77
2024/02/03 10:43:34;;;;;;;9.65;4.50;;;;;;;12.03;40.64;100759.06;5081771;28;20028;-75
2024/02/03 10:46:11;;;;;;;9.38;4.88;;;;;;;12.02;41.00;100762.75;5084739;28;20045;-77
2024/02/03 10:48:42;;;;;;;9.60;4.65;;;;;;;12.14;40.38;100735.38;5098977;28;20024;-78
2024/02/03 10:51:19;;;;;;;6.43;3.15;;;;;;;12.14;39.32;100746.88;5098691;28;20107;-77
2024/02/03 10:53:55;;;;;;;6.07;3.22;;;;;;;12.36;39.66;100742.06;5078425;28;20035;-76
2024/02/03 10:56:23;;;;;;;8.05;3.65;;;;;;;12.59;39.77;100719.28;5088360;28;20028;-77
2024/02/03 10:58:49;;;;;;;5.55;2.85;;;;;;;12.76;38.52;100736.44;5100249;28;20028;-76
2024/02/03 11:01:17;;;;;;;5.00;2.42;;;;;;;13.03;37.68;100698.75;5098418;28;20036;-77
2024/02/03 11:03:46;;;;;;;5.38;2.10;;;;;;;13.09;37.36;100718.50;5089765;28;20017;-78
2024/02/03 11:06:11;;;;;;;5.80;2.38;;;;;;;13.35;37.11;100706.75;5087227;28;20028;-76
2024/02/03 11:08:43;;;;;;;4.60;2.40;;;;;;;13.01;37.12;100722.25;5088478;28;20030;-77